MCY weather

Sunshine Coast Airport
Maroochydore, Queensland, Australia

Public forecast

Using degrees Celsius for public forecast. Weather courtesy of forecast.io.

METAR (pilot weather report)

Closest report is Brisbane International Airport, 46.9 nm (86.9 km) S. Retrieved 2017/08/17 02:30 UTC (30 minutes ago):

YBBN 170230Z 03012KT CAVOK 27/16 Q1009 NOSIG

TAF (pilot weather forecast)

Forecast is more than 6 hours old.

Closest forecast is Brisbane International Airport, 46.9 nm (86.9 km) S. Retrieved 2017/08/16 18:35 UTC (8 hours ago):

TAF YBBN 161710Z 1618/1724 34008KT CAVOK FM170300 03010KT CAVOK FM170800 25007KT CAVOK FM171800 25012KT CAVOK